Time;durP1;ratioP1;P1;durP2;ratioP2;P2;SDS_P1;SDS_P2;PMS_P1;PMS_P2;Temp;Humidity;BMP_temperature;BMP_pressure;BME280_temperature;BME280_humidity;BME280_pressure;Samples;Min_cycle;Max_cycle;Signal;HPM_P1;HPM_P2
2023/12/11 00:02:20;;;;;;;;;;;19.60;58.00;;;;;;5052615;28;19925;-65
2023/12/11 00:04:46;;;;;;;;;;;19.60;58.00;;;;;;5052919;28;19978;-65
2023/12/11 00:07:12;;;;;;;;;;;19.60;57.90;;;;;;5053041;28;20361;-64
2023/12/11 00:09:37;;;;;;;;;;;19.50;57.90;;;;;;5034517;28;19935;-64
2023/12/11 00:12:03;;;;;;;;;;;19.60;58.00;;;;;;5035356;28;19928;-65
2023/12/11 00:14:28;;;;;;;;;;;19.50;57.90;;;;;;5053518;28;20936;-65
2023/12/11 00:16:54;;;;;;;;;;;19.50;57.90;;;;;;5051922;28;19924;-64
2023/12/11 00:19:19;;;;;;;;;;;19.50;57.90;;;;;;5053215;28;19925;-65
2023/12/11 00:21:45;;;;;;;;;;;19.60;58.00;;;;;;5048452;28;19925;-65
2023/12/11 00:24:10;;;;;;;;;;;19.50;57.90;;;;;;5053834;28;20380;-65
2023/12/11 00:26:36;;;;;;;;;;;19.50;57.90;;;;;;5054631;28;19924;-65
2023/12/11 00:29:01;;;;;;;;;;;19.50;57.90;;;;;;5054995;28;19924;-65
2023/12/11 00:31:27;;;;;;;;;;;19.50;57.90;;;;;;5072412;28;20025;-65
2023/12/11 00:33:52;;;;;;;;;;;19.50;57.90;;;;;;5072690;28;19924;-65
2023/12/11 00:36:18;;;;;;;;;;;19.50;57.80;;;;;;5064074;28;19925;-64
2023/12/11 00:38:43;;;;;;;;;;;19.50;57.80;;;;;;5034648;28;19925;-65
2023/12/11 00:41:09;;;;;;;;;;;19.50;57.80;;;;;;5052868;28;19925;-65
2023/12/11 00:43:34;;;;;;;;;;;19.50;57.80;;;;;;5053050;28;19925;-65
2023/12/11 00:46:00;;;;;;;;;;;19.40;57.70;;;;;;5033913;28;19925;-65
2023/12/11 00:48:25;;;;;;;;;;;19.40;57.70;;;;;;5052819;28;19925;-65
2023/12/11 00:50:51;;;;;;;;;;;19.50;57.80;;;;;;5052257;28;19925;-64
2023/12/11 00:53:16;;;;;;;;;;;19.40;57.70;;;;;;5052995;28;20276;-64
2023/12/11 00:55:42;;;;;;;;;;;19.40;57.70;;;;;;5052769;28;19975;-65
2023/12/11 00:58:07;;;;;;;;;;;19.40;57.70;;;;;;5051870;28;20027;-65
2023/12/11 01:00:33;;;;;;;;;;;19.40;57.70;;;;;;5034908;28;19932;-65
2023/12/11 01:02:58;;;;;;;;;;;19.40;57.70;;;;;;5051918;28;19925;-64
2023/12/11 01:05:24;;;;;;;;;;;19.40;57.70;;;;;;5051825;28;19924;-65
2023/12/11 01:07:50;;;;;;;;;;;19.40;57.70;;;;;;5052502;28;19925;-65
2023/12/11 01:10:15;;;;;;;;;;;19.40;57.70;;;;;;5051884;28;19924;-64
2023/12/11 01:12:42;;;;;;;;;;;19.30;57.60;;;;;;5051283;28;20494;-65
2023/12/11 01:15:08;;;;;;;;;;;19.40;57.70;;;;;;5052014;28;19964;-65
2023/12/11 01:17:33;;;;;;;;;;;19.30;57.70;;;;;;5035475;28;19976;-65
2023/12/11 01:19:59;;;;;;;;;;;19.30;57.60;;;;;;5055363;28;19978;-65
2023/12/11 01:22:24;;;;;;;;;;;19.30;57.60;;;;;;5056548;28;20054;-65
2023/12/11 01:24:50;;;;;;;;;;;19.30;57.60;;;;;;5055852;28;20015;-65
2023/12/11 01:27:15;;;;;;;;;;;19.30;57.60;;;;;;5055242;28;20055;-65
2023/12/11 01:29:41;;;;;;;;;;;19.30;57.60;;;;;;5055995;28;19931;-64
2023/12/11 01:32:06;;;;;;;;;;;19.30;57.60;;;;;;5055916;28;19929;-64
2023/12/11 01:34:32;;;;;;;;;;;19.30;57.60;;;;;;5055671;28;19932;-64
2023/12/11 01:36:57;;;;;;;;;;;19.30;57.60;;;;;;5055795;28;19925;-64
2023/12/11 01:39:23;;;;;;;;;;;19.30;57.60;;;;;;5038432;28;19931;-64
2023/12/11 01:41:48;;;;;;;;;;;19.20;57.60;;;;;;5037918;28;19920;-64
2023/12/11 01:44:14;;;;;;;;;;;19.30;57.60;;;;;;5055884;28;19928;-65
2023/12/11 01:46:40;;;;;;;;;;;19.30;57.60;;;;;;5054000;28;19972;-64
2023/12/11 01:49:05;;;;;;;;;;;19.20;57.50;;;;;;5053933;28;20019;-64
2023/12/11 01:51:31;;;;;;;;;;;19.20;57.50;;;;;;5055278;28;19925;-64
2023/12/11 01:53:56;;;;;;;;;;;19.20;57.60;;;;;;5054617;28;19971;-64
2023/12/11 01:56:22;;;;;;;;;;;19.20;57.50;;;;;;5037450;28;19924;-64
2023/12/11 01:58:47;;;;;;;;;;;19.20;57.60;;;;;;5038025;28;19978;-65
2023/12/11 02:01:13;;;;;;;;;;;19.20;57.50;;;;;;5053660;28;19932;-65
2023/12/11 02:03:39;;;;;;;;;;;19.20;57.50;;;;;;5055436;28;20023;-65
2023/12/11 02:06:05;;;;;;;;;;;19.20;57.50;;;;;;5061211;28;19924;-64
2023/12/11 02:08:30;;;;;;;;;;;19.20;57.60;;;;;;5056766;28;20326;-64
2023/12/11 02:10:56;;;;;;;;;;;19.20;57.50;;;;;;5069189;28;20019;-64
2023/12/11 02:13:21;;;;;;;;;;;19.10;57.50;;;;;;5021021;28;19929;-64
2023/12/11 02:15:47;;;;;;;;;;;19.10;57.50;;;;;;5054485;28;20011;-64
2023/12/11 02:18:13;;;;;;;;;;;19.20;57.50;;;;;;5053881;28;20339;-65
2023/12/11 02:20:39;;;;;;;;;;;19.10;57.50;;;;;;5052567;28;20428;-64
2023/12/11 02:23:06;;;;;;;;;;;19.20;57.50;;;;;;5053514;28;20016;-64
2023/12/11 02:25:32;;;;;;;;;;;19.10;57.50;;;;;;5054881;28;19968;-64
2023/12/11 02:27:57;;;;;;;;;;;19.10;57.50;;;;;;5020121;28;19979;-64
2023/12/11 02:30:23;;;;;;;;;;;19.10;57.50;;;;;;5054382;28;19951;-65
2023/12/11 02:32:50;;;;;;;;;;;19.10;57.50;;;;;;5036936;28;19925;-65
2023/12/11 02:35:16;;;;;;;;;;;19.10;57.50;;;;;;5066512;28;20376;-64
2023/12/11 02:37:42;;;;;;;;;;;19.10;57.50;;;;;;5074260;28;19939;-65
2023/12/11 02:40:07;;;;;;;;;;;19.10;57.50;;;;;;5074600;28;20022;-65
2023/12/11 02:42:33;;;;;;;;;;;19.10;57.50;;;;;;5036946;28;20012;-64
2023/12/11 02:44:58;;;;;;;;;;;19.10;57.50;;;;;;5035300;28;19932;-64
2023/12/11 02:47:24;;;;;;;;;;;19.00;57.40;;;;;;5036510;28;19925;-64
2023/12/11 02:49:49;;;;;;;;;;;19.10;57.50;;;;;;5054795;28;19931;-64
2023/12/11 02:52:15;;;;;;;;;;;19.10;57.50;;;;;;5053599;28;19968;-65
2023/12/11 02:54:40;;;;;;;;;;;19.10;57.50;;;;;;5036887;28;19928;-67
2023/12/11 02:57:06;;;;;;;;;;;19.10;57.50;;;;;;5035453;28;19963;-65
2023/12/11 02:59:31;;;;;;;;;;;19.00;57.50;;;;;;5053757;28;19970;-65
2023/12/11 03:01:57;;;;;;;;;;;19.00;57.50;;;;;;5054168;28;19975;-65
2023/12/11 03:04:23;;;;;;;;;;;19.10;57.50;;;;;;5053765;28;19932;-65
2023/12/11 03:06:48;;;;;;;;;;;19.00;57.50;;;;;;5053983;28;19932;-65
2023/12/11 03:09:14;;;;;;;;;;;19.00;57.50;;;;;;5035592;28;19989;-64
2023/12/11 03:11:39;;;;;;;;;;;19.00;57.50;;;;;;5053446;28;19925;-65
2023/12/11 03:14:05;;;;;;;;;;;19.00;57.50;;;;;;5053756;28;19928;-64
2023/12/11 03:16:30;;;;;;;;;;;19.00;57.50;;;;;;5054195;28;19924;-65
2023/12/11 03:18:56;;;;;;;;;;;19.00;57.60;;;;;;5053101;28;20300;-65
2023/12/11 03:21:21;;;;;;;;;;;19.00;57.50;;;;;;5036195;28;19925;-64
2023/12/11 03:23:47;;;;;;;;;;;19.00;57.50;;;;;;5053881;28;19929;-64
2023/12/11 03:26:12;;;;;;;;;;;19.00;57.50;;;;;;5051609;28;19924;-65
2023/12/11 03:28:38;;;;;;;;;;;19.00;57.50;;;;;;5035674;28;19924;-65
2023/12/11 03:31:03;;;;;;;;;;;19.00;57.50;;;;;;5053490;28;19921;-65
2023/12/11 03:33:29;;;;;;;;;;;19.00;57.50;;;;;;5035655;28;19924;-65
2023/12/11 03:35:54;;;;;;;;;;;19.00;57.60;;;;;;5053163;28;20430;-64
2023/12/11 03:38:20;;;;;;;;;;;19.00;57.50;;;;;;5066451;28;20440;-64
2023/12/11 03:40:45;;;;;;;;;;;19.00;57.50;;;;;;5071624;28;19931;-65
2023/12/11 03:43:11;;;;;;;;;;;19.00;57.50;;;;;;5071780;28;19935;-64
2023/12/11 03:45:36;;;;;;;;;;;19.00;57.50;;;;;;5052959;28;19929;-65
2023/12/11 03:48:02;;;;;;;;;;;19.00;57.50;;;;;;5052496;28;19924;-66
2023/12/11 03:50:27;;;;;;;;;;;19.00;57.50;;;;;;5035676;28;19928;-65
2023/12/11 03:52:53;;;;;;;;;;;19.00;57.50;;;;;;5053299;28;19929;-66
2023/12/11 03:55:19;;;;;;;;;;;19.00;57.50;;;;;;5035009;28;19925;-65
2023/12/11 03:57:44;;;;;;;;;;;19.00;57.50;;;;;;5035621;28;19925;-65
2023/12/11 04:00:10;;;;;;;;;;;19.00;57.50;;;;;;5053351;28;20339;-65
2023/12/11 04:02:35;;;;;;;;;;;19.10;57.50;;;;;;5034343;28;20449;-66
2023/12/11 04:05:01;;;;;;;;;;;19.10;57.50;;;;;;5035198;28;19932;-66
2023/12/11 04:07:28;;;;;;;;;;;19.10;57.50;;;;;;5035697;28;19947;-65
2023/12/11 04:09:53;;;;;;;;;;;19.10;57.50;;;;;;5052355;28;20365;-66
2023/12/11 04:12:19;;;;;;;;;;;19.10;57.50;;;;;;5035067;28;19925;-65
2023/12/11 04:14:44;;;;;;;;;;;19.10;57.50;;;;;;5034540;28;19925;-65
2023/12/11 04:17:10;;;;;;;;;;;19.10;57.50;;;;;;5034889;28;19925;-65
2023/12/11 04:19:35;;;;;;;;;;;19.20;57.50;;;;;;5068382;28;19924;-65
2023/12/11 04:22:01;;;;;;;;;;;19.20;57.50;;;;;;5054671;28;19946;-66
2023/12/11 04:24:26;;;;;;;;;;;19.20;57.50;;;;;;5072512;28;20311;-66
2023/12/11 04:26:52;;;;;;;;;;;19.20;57.50;;;;;;5049484;28;19924;-65
2023/12/11 04:29:17;;;;;;;;;;;19.20;57.50;;;;;;5034407;28;19928;-65
2023/12/11 04:31:43;;;;;;;;;;;19.20;57.50;;;;;;5053199;28;20382;-65
2023/12/11 04:34:08;;;;;;;;;;;19.30;57.50;;;;;;5052950;28;19925;-65
2023/12/11 04:36:34;;;;;;;;;;;19.30;57.50;;;;;;5033762;28;19925;-65
2023/12/11 04:38:59;;;;;;;;;;;19.30;57.50;;;;;;5034150;28;19928;-65
2023/12/11 04:41:25;;;;;;;;;;;19.30;57.50;;;;;;5052791;28;19921;-65
2023/12/11 04:43:50;;;;;;;;;;;19.30;57.50;;;;;;5034456;28;19924;-65
2023/12/11 04:46:16;;;;;;;;;;;19.30;57.40;;;;;;5053644;28;19928;-65
2023/12/11 04:48:41;;;;;;;;;;;19.40;57.50;;;;;;5073012;28;20368;-65
2023/12/11 04:51:07;;;;;;;;;;;19.30;57.40;;;;;;5072402;28;19928;-65
2023/12/11 04:53:32;;;;;;;;;;;19.40;57.40;;;;;;5059238;28;19924;-65
2023/12/11 04:55:58;;;;;;;;;;;19.40;57.50;;;;;;5076561;28;19920;-65
2023/12/11 04:58:23;;;;;;;;;;;19.40;57.40;;;;;;5057852;28;19925;-66
2023/12/11 05:00:49;;;;;;;;;;;19.40;57.40;;;;;;5076834;28;19921;-65
2023/12/11 05:03:14;;;;;;;;;;;19.40;57.40;;;;;;5068454;28;19929;-65
2023/12/11 05:05:40;;;;;;;;;;;19.50;57.40;;;;;;5037823;28;19924;-65
2023/12/11 05:08:06;;;;;;;;;;;19.50;57.40;;;;;;5056158;28;19921;-65
2023/12/11 05:10:32;;;;;;;;;;;19.50;57.40;;;;;;5055685;28;19925;-65
2023/12/11 05:12:58;;;;;;;;;;;19.50;57.40;;;;;;5055727;28;19935;-65
2023/12/11 05:15:23;;;;;;;;;;;19.50;57.40;;;;;;5056718;28;20008;-65
2023/12/11 05:17:49;;;;;;;;;;;19.50;57.40;;;;;;5055985;28;20012;-65
2023/12/11 05:20:16;;;;;;;;;;;19.50;57.40;;;;;;5037790;28;19935;-65
2023/12/11 05:22:41;;;;;;;;;;;19.50;57.40;;;;;;5056459;28;20427;-65
2023/12/11 05:25:07;;;;;;;;;;;19.50;57.40;;;;;;5054588;28;20016;-65
2023/12/11 05:27:33;;;;;;;;;;;19.50;57.40;;;;;;5038352;28;20011;-65
2023/12/11 05:29:58;;;;;;;;;;;19.60;57.40;;;;;;5038278;28;19925;-65
2023/12/11 05:32:25;;;;;;;;;;;19.50;57.30;;;;;;5037151;28;20224;-65
2023/12/11 05:34:51;;;;;;;;;;;19.50;57.30;;;;;;5056079;28;19971;-65
2023/12/11 05:37:17;;;;;;;;;;;19.60;57.50;;;;;;5056227;28;19929;-65
2023/12/11 05:39:42;;;;;;;;;;;19.60;57.40;;;;;;5037455;28;19925;-65
2023/12/11 05:42:08;;;;;;;;;;;19.60;57.40;;;;;;5037771;28;19928;-65
2023/12/11 05:44:33;;;;;;;;;;;19.60;57.40;;;;;;5073144;28;19924;-64
2023/12/11 05:46:59;;;;;;;;;;;19.60;57.40;;;;;;5056826;28;19987;-65
2023/12/11 05:49:25;;;;;;;;;;;19.60;57.40;;;;;;5075187;28;19968;-64
2023/12/11 05:51:50;;;;;;;;;;;19.60;57.30;;;;;;5075015;28;19931;-65
2023/12/11 05:54:16;;;;;;;;;;;19.60;57.30;;;;;;5056564;28;19924;-65
2023/12/11 05:56:41;;;;;;;;;;;19.60;57.30;;;;;;5075771;28;19924;-65
2023/12/11 05:59:07;;;;;;;;;;;19.60;57.30;;;;;;5075639;28;19931;-65
2023/12/11 06:01:32;;;;;;;;;;;19.60;57.30;;;;;;5074422;28;19977;-65
2023/12/11 06:04:00;;;;;;;;;;;19.60;57.30;;;;;;5056937;28;20323;-65
2023/12/11 06:06:26;;;;;;;;;;;19.60;57.30;;;;;;5057857;28;20269;-66
2023/12/11 06:08:51;;;;;;;;;;;19.60;57.30;;;;;;5071351;28;20146;-65
2023/12/11 06:11:17;;;;;;;;;;;19.70;57.40;;;;;;5063497;28;19950;-65
2023/12/11 06:13:42;;;;;;;;;;;19.70;57.30;;;;;;5037385;28;19977;-65
2023/12/11 06:16:08;;;;;;;;;;;19.70;57.30;;;;;;5054169;28;20027;-66
2023/12/11 06:18:34;;;;;;;;;;;19.70;57.30;;;;;;5048497;28;19931;-66
2023/12/11 06:20:59;;;;;;;;;;;19.70;57.40;;;;;;5050220;28;19928;-65
2023/12/11 06:23:25;;;;;;;;;;;19.70;57.40;;;;;;5036636;28;20374;-65
2023/12/11 06:25:51;;;;;;;;;;;19.70;57.40;;;;;;5036455;28;19925;-66
2023/12/11 06:28:16;;;;;;;;;;;19.70;57.40;;;;;;5036529;28;20374;-66
2023/12/11 06:30:42;;;;;;;;;;;19.70;57.40;;;;;;5037019;28;20384;-66
2023/12/11 06:33:07;;;;;;;;;;;19.70;57.30;;;;;;5039775;28;19975;-64
2023/12/11 06:35:33;;;;;;;;;;;19.80;57.40;;;;;;5074269;28;19971;-64
2023/12/11 06:37:58;;;;;;;;;;;19.80;57.50;;;;;;5046513;28;19967;-63
2023/12/11 06:40:24;;;;;;;;;;;19.80;57.50;;;;;;5054925;28;20051;-64
2023/12/11 06:42:50;;;;;;;;;;;19.80;57.50;;;;;;5054256;28;19925;-64
2023/12/11 06:45:15;;;;;;;;;;;19.80;57.60;;;;;;5036803;28;19921;-63
2023/12/11 06:47:41;;;;;;;;;;;19.80;57.60;;;;;;5054636;28;19925;-64
2023/12/11 06:50:06;;;;;;;;;;;19.80;57.60;;;;;;5064016;28;19947;-63
2023/12/11 06:52:32;;;;;;;;;;;19.80;57.60;;;;;;5074656;28;20364;-64
2023/12/11 06:54:57;;;;;;;;;;;19.80;57.60;;;;;;5073984;28;19933;-64
2023/12/11 06:57:23;;;;;;;;;;;19.80;57.70;;;;;;5073683;28;19924;-63
2023/12/11 06:59:48;;;;;;;;;;;19.80;57.70;;;;;;5039540;28;19924;-64
2023/12/11 07:02:14;;;;;;;;;;;19.90;57.80;;;;;;5074035;28;19946;-63
2023/12/11 07:04:42;;;;;;;;;;;19.90;57.80;;;;;;5073853;28;19920;-63
2023/12/11 07:07:08;;;;;;;;;;;19.90;57.90;;;;;;5073968;28;20469;-64
2023/12/11 07:09:33;;;;;;;;;;;19.90;58.00;;;;;;5056283;28;20015;-63
2023/12/11 07:11:59;;;;;;;;;;;19.90;58.00;;;;;;5054965;28;19933;-65
2023/12/11 07:14:25;;;;;;;;;;;19.90;58.20;;;;;;5073931;28;19924;-64
2023/12/11 07:16:50;;;;;;;;;;;19.90;58.30;;;;;;5073646;28;19924;-64
2023/12/11 07:19:16;;;;;;;;;;;19.90;58.30;;;;;;5055095;28;19924;-65
2023/12/11 07:21:43;;;;;;;;;;;19.90;58.40;;;;;;5073950;28;19931;-64
2023/12/11 07:24:08;;;;;;;;;;;19.90;58.50;;;;;;5073278;28;20421;-65
2023/12/11 07:26:34;;;;;;;;;;;19.90;58.60;;;;;;5054247;28;20391;-64
2023/12/11 07:29:00;;;;;;;;;;;19.90;58.50;;;;;;5055225;28;19978;-64
2023/12/11 07:31:25;;;;;;;;;;;19.90;58.60;;;;;;5073954;28;19928;-64
2023/12/11 07:33:51;;;;;;;;;;;20.00;58.70;;;;;;5073171;28;19924;-64
2023/12/11 07:36:17;;;;;;;;;;;20.00;58.80;;;;;;5055613;28;20019;-64
2023/12/11 07:38:42;;;;;;;;;;;20.00;58.80;;;;;;5066688;28;19925;-65
2023/12/11 07:41:08;;;;;;;;;;;20.00;58.80;;;;;;5035492;28;19929;-63
2023/12/11 07:43:33;;;;;;;;;;;20.00;58.80;;;;;;5035887;28;19974;-63
2023/12/11 07:45:59;;;;;;;;;;;20.00;58.90;;;;;;5049698;28;19935;-63
2023/12/11 07:48:25;;;;;;;;;;;20.00;58.90;;;;;;5064742;28;19920;-64
2023/12/11 07:50:51;;;;;;;;;;;20.00;58.90;;;;;;5049956;28;19931;-64
2023/12/11 07:53:17;;;;;;;;;;;20.00;59.10;;;;;;5052817;28;20331;-64
2023/12/11 07:55:42;;;;;;;;;;;20.10;59.00;;;;;;5053113;28;19921;-63
2023/12/11 07:58:08;;;;;;;;;;;20.00;59.00;;;;;;5067247;28;19971;-63
2023/12/11 08:00:33;;;;;;;;;;;20.00;59.00;;;;;;5069743;28;19924;-63
2023/12/11 08:02:59;;;;;;;;;;;20.00;59.00;;;;;;5063138;28;19932;-63
2023/12/11 08:05:24;;;;;;;;;;;20.10;59.10;;;;;;5062429;28;19924;-63
2023/12/11 08:07:50;;;;;;;;;;;20.10;59.10;;;;;;5060480;28;19950;-62
2023/12/11 08:10:16;;;;;;;;;;;20.10;59.00;;;;;;5043698;28;20407;-63
2023/12/11 08:12:41;;;;;;;;;;;20.10;59.00;;;;;;5061146;28;19949;-63
2023/12/11 08:15:07;;;;;;;;;;;20.10;59.00;;;;;;5062818;28;20023;-62
2023/12/11 08:17:33;;;;;;;;;;;20.10;59.00;;;;;;5059858;28;19932;-62
2023/12/11 08:19:58;;;;;;;;;;;20.00;58.90;;;;;;5034921;28;19929;-62
2023/12/11 08:22:24;;;;;;;;;;;20.10;58.90;;;;;;5071987;28;19925;-63
2023/12/11 08:24:49;;;;;;;;;;;20.00;58.70;;;;;;5053313;28;19925;-61
2023/12/11 08:27:15;;;;;;;;;;;20.10;58.70;;;;;;5044241;28;19929;-62
2023/12/11 08:29:40;;;;;;;;;;;20.00;58.90;;;;;;5034266;28;20327;-62
2023/12/11 08:32:06;;;;;;;;;;;20.00;58.80;;;;;;5044850;28;20326;-62
2023/12/11 08:34:31;;;;;;;;;;;20.00;58.90;;;;;;5039807;28;20376;-60
2023/12/11 08:36:57;;;;;;;;;;;20.00;59.00;;;;;;5060996;28;20311;-61
2023/12/11 08:39:22;;;;;;;;;;;20.10;59.10;;;;;;5070231;28;19953;-62
2023/12/11 08:41:49;;;;;;;;;;;20.10;59.10;;;;;;5042204;28;20020;-62
2023/12/11 08:44:14;;;;;;;;;;;20.10;59.30;;;;;;5042512;28;20299;-61
2023/12/11 08:46:40;;;;;;;;;;;20.10;59.30;;;;;;5074297;28;19920;-61
2023/12/11 08:49:05;;;;;;;;;;;20.10;59.30;;;;;;5068614;28;19931;-61
2023/12/11 08:51:32;;;;;;;;;;;20.10;59.30;;;;;;5072678;28;19928;-63
2023/12/11 08:53:57;;;;;;;;;;;20.10;59.30;;;;;;5050964;28;19920;-62
2023/12/11 08:56:23;;;;;;;;;;;20.10;59.30;;;;;;5057984;28;19924;-63
2023/12/11 08:58:49;;;;;;;;;;;20.10;59.30;;;;;;5044750;28;20372;-62
2023/12/11 09:01:15;;;;;;;;;;;20.10;59.40;;;;;;5059680;28;19935;-62
2023/12/11 09:03:42;;;;;;;;;;;20.10;59.40;;;;;;5043316;28;20288;-62
2023/12/11 09:06:08;;;;;;;;;;;20.10;59.40;;;;;;5043948;28;20304;-60
2023/12/11 09:08:33;;;;;;;;;;;20.10;59.40;;;;;;5043135;28;20373;-62
2023/12/11 09:10:59;;;;;;;;;;;20.10;59.50;;;;;;5041795;28;19925;-62
2023/12/11 09:13:26;;;;;;;;;;;20.00;59.40;;;;;;5040788;28;19925;-62
2023/12/11 09:15:51;;;;;;;;;;;20.10;59.50;;;;;;5062723;28;20707;-62
2023/12/11 09:18:17;;;;;;;;;;;20.10;59.60;;;;;;5042645;28;20023;-62
2023/12/11 09:20:43;;;;;;;;;;;20.00;59.40;;;;;;5060745;28;20019;-63
2023/12/11 09:23:09;;;;;;;;;;;20.00;59.60;;;;;;5044303;28;20054;-62
2023/12/11 09:25:35;;;;;;;;;;;20.00;59.50;;;;;;5042569;28;19924;-61
2023/12/11 09:28:01;;;;;;;;;;;20.00;59.50;;;;;;5061488;28;19924;-62
2023/12/11 09:30:28;;;;;;;;;;;20.00;59.50;;;;;;5043573;28;19939;-63
2023/12/11 09:32:53;;;;;;;;;;;20.00;59.60;;;;;;5039437;28;20010;-63
2023/12/11 09:35:19;;;;;;;;;;;20.00;59.50;;;;;;5039844;28;20066;-62
2023/12/11 09:37:48;;;;;;;;;;;20.00;59.40;;;;;;5034339;28;19951;-62
2023/12/11 09:40:14;;;;;;;;;;;20.00;59.30;;;;;;5036661;28;19925;-62
2023/12/11 09:42:39;;;;;;;;;;;20.00;59.30;;;;;;5055484;28;20299;-62
2023/12/11 09:45:05;;;;;;;;;;;20.00;59.20;;;;;;5055401;28;19931;-62
2023/12/11 09:47:31;;;;;;;;;;;20.00;59.00;;;;;;5020551;28;19925;-61
2023/12/11 09:49:57;;;;;;;;;;;20.00;59.10;;;;;;5037817;28;19971;-61
2023/12/11 09:52:22;;;;;;;;;;;19.90;59.00;;;;;;5023109;28;19928;-61
2023/12/11 09:54:48;;;;;;;;;;;19.90;58.90;;;;;;5057248;28;20384;-62
2023/12/11 09:57:14;;;;;;;;;;;19.90;58.90;;;;;;5057434;28;19931;-62
2023/12/11 09:59:40;;;;;;;;;;;19.90;58.90;;;;;;5075031;28;20276;-61
2023/12/11 10:02:06;;;;;;;;;;;19.90;58.90;;;;;;5074831;28;19925;-61
2023/12/11 10:04:31;;;;;;;;;;;19.90;58.90;;;;;;5057532;28;19951;-61
2023/12/11 10:06:57;;;;;;;;;;;19.90;59.00;;;;;;5074645;28;20011;-61
2023/12/11 10:09:26;;;;;;;;;;;19.90;59.00;;;;;;5075466;28;19921;-62
2023/12/11 10:11:58;;;;;;;;;;;19.90;59.00;;;;;;5075037;28;19951;-62
2023/12/11 10:14:24;;;;;;;;;;;19.90;59.10;;;;;;5057733;28;19994;-63
2023/12/11 10:16:49;;;;;;;;;;;19.80;59.00;;;;;;5037213;28;20435;-62
2023/12/11 10:19:15;;;;;;;;;;;19.80;59.20;;;;;;5054534;28;19940;-63
2023/12/11 10:21:41;;;;;;;;;;;19.80;59.20;;;;;;5067928;28;20380;-62
2023/12/11 10:24:13;;;;;;;;;;;19.80;59.30;;;;;;5074731;28;20376;-62
2023/12/11 10:26:43;;;;;;;;;;;19.80;59.20;;;;;;5049418;28;20020;-73
2023/12/11 10:29:25;;;;;;;;;;;19.80;59.30;;;;;;5051620;28;19936;-60
2023/12/11 10:31:51;;;;;;;;;;;19.80;59.20;;;;;;5063727;28;19962;-60
2023/12/11 10:34:17;;;;;;;;;;;19.80;59.20;;;;;;5061526;28;19959;-60
2023/12/11 10:36:52;;;;;;;;;;;19.70;59.20;;;;;;5053654;28;20348;-60
2023/12/11 10:39:20;;;;;;;;;;;19.70;59.10;;;;;;5051606;28;19925;-60
2023/12/11 10:41:46;;;;;;;;;;;19.70;59.10;;;;;;5053668;28;19925;-62
2023/12/11 10:44:26;;;;;;;;;;;19.70;59.10;;;;;;5056393;28;20019;-63
2023/12/11 10:46:54;;;;;;;;;;;19.80;59.20;;;;;;5056682;28;19933;-63
2023/12/11 10:49:20;;;;;;;;;;;19.70;59.10;;;;;;5073616;28;19920;-62
2023/12/11 10:51:47;;;;;;;;;;;19.70;59.00;;;;;;5074666;28;19925;-63
2023/12/11 10:54:12;;;;;;;;;;;19.70;59.00;;;;;;5055559;28;19963;-62
2023/12/11 10:56:39;;;;;;;;;;;19.70;58.90;;;;;;5055507;28;19967;-63
2023/12/11 10:59:05;;;;;;;;;;;19.70;58.90;;;;;;5039762;28;19924;-64
2023/12/11 11:01:30;;;;;;;;;;;19.70;58.90;;;;;;5073975;28;19931;-64
2023/12/11 11:03:56;;;;;;;;;;;19.70;58.70;;;;;;5072803;28;19925;-64
2023/12/11 11:06:21;;;;;;;;;;;19.70;58.60;;;;;;5036341;28;19932;-64
2023/12/11 11:08:52;;;;;;;;;;;19.70;58.60;;;;;;5043854;28;20023;-64
2023/12/11 11:11:31;;;;;;;;;;;19.60;58.60;;;;;;5058624;28;20027;-64
2023/12/11 11:13:57;;;;;;;;;;;19.70;58.70;;;;;;5020022;28;20434;-65
2023/12/11 11:16:22;;;;;;;;;;;19.70;58.70;;;;;;5054231;28;19929;-64
2023/12/11 11:19:04;;;;;;;;;;;19.70;58.70;;;;;;5053005;28;19924;-63
2023/12/11 11:21:30;;;;;;;;;;;19.60;58.60;;;;;;5035967;28;19976;-64
2023/12/11 11:23:56;;;;;;;;;;;19.60;58.70;;;;;;5037911;28;20356;-63
2023/12/11 11:26:34;;;;;;;;;;;19.60;58.70;;;;;;5073599;28;19932;-63
2023/12/11 11:29:00;;;;;;;;;;;19.60;58.70;;;;;;5064171;28;19954;-63
2023/12/11 11:31:44;;;;;;;;;;;19.60;58.70;;;;;;5037393;28;19924;-61
2023/12/11 11:34:11;;;;;;;;;;;19.60;58.80;;;;;;5068623;28;20611;-63
2023/12/11 11:36:43;;;;;;;;;;;19.60;59.00;;;;;;5061446;28;20361;-64
2023/12/11 11:39:09;;;;;;;;;;;19.60;59.00;;;;;;5034866;28;19929;-63
2023/12/11 11:41:34;;;;;;;;;;;19.60;59.10;;;;;;5053731;28;19928;-64
2023/12/11 11:44:01;;;;;;;;;;;19.60;59.20;;;;;;5062558;28;20338;-64
2023/12/11 11:46:27;;;;;;;;;;;19.60;59.10;;;;;;5072608;28;20414;-64
2023/12/11 11:48:52;;;;;;;;;;;19.60;59.10;;;;;;5073370;28;19928;-64
2023/12/11 11:51:18;;;;;;;;;;;19.60;59.20;;;;;;5047623;28;19931;-65
2023/12/11 11:53:44;;;;;;;;;;;19.60;59.20;;;;;;5052772;28;19925;-64
2023/12/11 11:56:11;;;;;;;;;;;19.60;59.20;;;;;;5035654;28;19932;-63
2023/12/11 11:58:36;;;;;;;;;;;19.60;59.10;;;;;;5035595;28;19924;-64
2023/12/11 12:01:05;;;;;;;;;;;19.60;59.10;;;;;;5049183;28;19931;-64
2023/12/11 12:03:43;;;;;;;;;;;19.60;59.10;;;;;;5073457;28;19970;-64
2023/12/11 12:06:09;;;;;;;;;;;19.60;59.10;;;;;;5054306;28;20363;-65
2023/12/11 12:08:36;;;;;;;;;;;19.60;59.00;;;;;;5055682;28;19967;-64
2023/12/11 12:11:05;;;;;;;;;;;19.60;59.00;;;;;;5055310;28;19947;-64
2023/12/11 12:13:34;;;;;;;;;;;19.60;58.90;;;;;;5054494;28;19924;-64
2023/12/11 12:15:59;;;;;;;;;;;19.60;59.00;;;;;;5055298;28;19939;-64
2023/12/11 12:18:25;;;;;;;;;;;19.60;59.00;;;;;;5055040;28;20011;-64
2023/12/11 12:21:03;;;;;;;;;;;19.60;58.90;;;;;;5054501;28;20046;-64
2023/12/11 12:23:28;;;;;;;;;;;19.60;58.90;;;;;;5038524;28;19925;-64
2023/12/11 12:25:57;;;;;;;;;;;19.60;58.80;;;;;;5038828;28;19947;-64
2023/12/11 12:28:23;;;;;;;;;;;19.60;58.80;;;;;;5034346;28;20281;-64
2023/12/11 12:30:49;;;;;;;;;;;19.60;58.80;;;;;;5053347;28;20012;-64
2023/12/11 12:33:14;;;;;;;;;;;19.60;58.70;;;;;;5034674;28;19971;-64
2023/12/11 12:35:40;;;;;;;;;;;19.60;58.70;;;;;;5034629;28;19925;-64
2023/12/11 12:38:07;;;;;;;;;;;19.60;58.60;;;;;;5018323;28;20323;-64
2023/12/11 12:40:33;;;;;;;;;;;19.60;58.60;;;;;;5018770;28;19925;-64
2023/12/11 12:43:00;;;;;;;;;;;19.60;58.50;;;;;;5033936;28;19928;-63
2023/12/11 12:45:26;;;;;;;;;;;19.60;58.50;;;;;;5035405;28;19932;-64
2023/12/11 12:47:51;;;;;;;;;;;19.60;58.50;;;;;;5052514;28;19925;-64
2023/12/11 12:50:18;;;;;;;;;;;19.70;58.50;;;;;;5034307;28;20020;-64
2023/12/11 12:52:43;;;;;;;;;;;19.70;58.40;;;;;;5034966;28;19974;-64
2023/12/11 12:55:09;;;;;;;;;;;19.70;58.40;;;;;;5045404;28;20030;-64
2023/12/11 12:57:36;;;;;;;;;;;19.70;58.30;;;;;;5054593;28;20003;-63
2023/12/11 13:00:01;;;;;;;;;;;19.70;58.30;;;;;;5038116;28;19925;-63
2023/12/11 13:02:27;;;;;;;;;;;19.80;58.30;;;;;;5072045;28;19955;-63
2023/12/11 13:04:53;;;;;;;;;;;19.80;58.20;;;;;;5054352;28;20010;-64
2023/12/11 13:07:23;;;;;;;;;;;19.80;58.10;;;;;;5054860;28;19928;-64
2023/12/11 13:09:48;;;;;;;;;;;19.80;58.10;;;;;;5054275;28;19924;-64
2023/12/11 13:12:18;;;;;;;;;;;19.80;58.00;;;;;;5073137;28;20296;-62
2023/12/11 13:14:43;;;;;;;;;;;19.80;57.90;;;;;;5076553;28;19947;-63
2023/12/11 13:17:09;;;;;;;;;;;19.80;57.90;;;;;;5057403;28;20388;-65
2023/12/11 13:19:34;;;;;;;;;;;19.90;57.90;;;;;;5070058;28;20009;-63
2023/12/11 13:22:00;;;;;;;;;;;19.90;57.80;;;;;;5044924;28;20395;-64
2023/12/11 13:24:25;;;;;;;;;;;19.90;57.80;;;;;;5055219;28;19924;-63
2023/12/11 13:26:51;;;;;;;;;;;19.90;57.70;;;;;;5056540;28;19932;-64
2023/12/11 13:29:17;;;;;;;;;;;19.90;57.70;;;;;;5042023;28;19939;-64
2023/12/11 13:31:43;;;;;;;;;;;19.90;57.70;;;;;;5057489;28;19924;-64
2023/12/11 13:34:08;;;;;;;;;;;19.90;57.60;;;;;;5057961;28;19962;-64
2023/12/11 13:36:34;;;;;;;;;;;19.90;57.60;;;;;;5058078;28;20022;-64
2023/12/11 13:39:00;;;;;;;;;;;20.00;57.60;;;;;;5057256;28;19924;-64
2023/12/11 13:41:26;;;;;;;;;;;20.00;57.50;;;;;;5058058;28;20380;-64
2023/12/11 13:43:51;;;;;;;;;;;20.00;57.50;;;;;;5058126;28;19920;-64
2023/12/11 13:46:16;;;;;;;;;;;20.00;57.60;;;;;;5057146;28;20015;-64
2023/12/11 13:48:42;;;;;;;;;;;20.00;57.40;;;;;;5076010;28;19930;-63
2023/12/11 13:51:08;;;;;;;;;;;20.00;57.50;;;;;;5050951;28;19925;-64
2023/12/11 13:53:33;;;;;;;;;;;20.00;57.50;;;;;;5037311;28;20377;-64
2023/12/11 13:56:00;;;;;;;;;;;20.00;57.40;;;;;;5055735;28;19928;-64
2023/12/11 13:58:26;;;;;;;;;;;20.10;57.40;;;;;;5055255;28;19985;-64
2023/12/11 14:00:51;;;;;;;;;;;20.10;57.40;;;;;;5055653;28;19925;-64
2023/12/11 14:03:20;;;;;;;;;;;20.10;57.40;;;;;;5055034;28;19924;-64
2023/12/11 14:05:45;;;;;;;;;;;20.10;57.40;;;;;;5036918;28;19925;-64
2023/12/11 14:08:13;;;;;;;;;;;20.10;57.30;;;;;;5055182;28;19929;-64
2023/12/11 14:10:38;;;;;;;;;;;20.10;57.30;;;;;;5055470;28;19924;-64